Time;durP1;ratioP1;P1;durP2;ratioP2;P2;SDS_P1;SDS_P2;PMS_P1;PMS_P2;Temp;Humidity;BMP_temperature;BMP_pressure;BME280_temperature;BME280_humidity;BME280_pressure;Samples;Min_cycle;Max_cycle;Signal;HPM_P1;HPM_P2
2021/07/14 00:01:00;;;;;;;17.20;8.82;;;19.50;99.90;;;18.31;100.00;101341.59;5024059;28;20041;-74
2021/07/14 00:03:27;;;;;;;17.48;9.80;;;19.40;99.90;;;18.27;100.00;101393.41;5040270;28;20029;-74
2021/07/14 00:05:53;;;;;;;15.55;9.63;;;19.40;99.90;;;18.33;100.00;101413.47;5041139;28;20112;-75
2021/07/14 00:08:19;;;;;;;12.98;9.60;;;19.40;99.90;;;18.28;100.00;101436.94;5039899;28;20067;-75
2021/07/14 00:10:45;;;;;;;16.58;10.13;;;19.40;99.90;;;18.33;100.00;101480.09;5056031;28;20036;-74
2021/07/14 00:23:58;;;;;;;17.90;9.77;;;19.50;99.90;;;18.47;100.00;101592.03;5021668;28;20037;-75
2021/07/14 00:26:24;;;;;;;17.63;10.40;;;19.50;99.90;;;18.45;100.00;101564.63;5025333;28;20108;-74
2021/07/14 00:28:51;;;;;;;16.80;9.90;;;19.50;99.90;;;18.48;100.00;101560.88;5020880;28;20090;-75
2021/07/14 00:31:19;;;;;;;14.73;10.02;;;19.60;99.90;;;18.45;100.00;101588.63;5022531;28;20024;-74
2021/07/14 00:33:47;;;;;;;15.05;9.73;;;19.60;99.90;;;18.48;100.00;101614.22;5022469;28;20065;-75
2021/07/14 00:36:14;;;;;;;12.82;9.15;;;19.60;99.90;;;18.51;100.00;101614.00;5040483;28;20032;-75
2021/07/14 00:38:41;;;;;;;14.23;9.63;;;19.60;99.90;;;18.46;100.00;101646.31;5021698;28;20370;-75
2021/07/14 00:41:07;;;;;;;18.23;9.35;;;19.50;99.90;;;18.42;100.00;101587.03;5002998;28;20033;-75
2021/07/14 00:43:35;;;;;;;18.13;9.50;;;19.50;99.90;;;18.37;100.00;101654.91;5037029;28;20045;-75
2021/07/14 00:46:27;;;;;;;15.50;9.23;;;19.40;99.90;;;18.28;100.00;101692.84;5018145;28;20021;-75
2021/07/14 00:49:00;;;;;;;15.20;9.43;;;19.40;99.90;;;18.30;100.00;101746.94;5020902;28;20036;-75
2021/07/14 00:51:30;;;;;;;15.65;9.57;;;19.40;99.90;;;18.28;100.00;101788.81;5021380;28;20029;-74
2021/07/14 00:53:58;;;;;;;14.35;9.52;;;19.40;99.90;;;18.27;100.00;101773.75;5026359;28;22302;-75
2021/07/14 00:56:28;;;;;;;15.93;10.65;;;19.40;99.90;;;18.31;100.00;101800.13;5012773;28;20041;-75
2021/07/14 00:58:57;;;;;;;16.45;10.45;;;19.40;99.90;;;18.31;100.00;101741.47;5022948;28;20041;-75
2021/07/14 01:01:27;;;;;;;17.25;9.82;;;19.50;99.90;;;18.34;100.00;101730.63;5023149;28;20199;-75
2021/07/14 01:04:26;;;;;;;13.52;9.88;;;19.40;99.90;;;18.28;100.00;101743.50;5038294;28;20032;-75
2021/07/14 01:07:02;;;;;;;16.48;9.45;;;19.40;99.90;;;18.30;100.00;101737.09;5037772;28;20082;-74
2021/07/14 01:09:45;;;;;;;15.77;10.43;;;19.40;99.90;;;18.38;100.00;101701.94;5025875;28;20034;-75
2021/07/14 01:12:44;;;;;;;17.15;11.48;;;19.40;99.90;;;18.37;100.00;101749.09;5023431;28;20373;-75
2021/07/14 01:15:18;;;;;;;16.67;11.35;;;19.50;99.90;;;18.53;100.00;101874.34;5038327;28;20033;-75
2021/07/14 01:18:17;;;;;;;17.90;10.77;;;19.50;99.90;;;18.50;100.00;101852.31;5025234;28;20048;-75
2021/07/14 01:20:58;;;;;;;13.15;9.68;;;19.50;99.90;;;18.56;100.00;101895.47;5023871;28;20041;-75
2021/07/14 01:23:36;;;;;;;17.02;10.07;;;19.60;99.90;;;18.63;100.00;101871.94;5022800;28;20057;-75
2021/07/14 01:26:30;;;;;;;17.02;10.20;;;19.60;99.90;;;18.56;100.00;101811.94;5024477;28;20083;-75
2021/07/14 01:28:58;;;;;;;16.08;10.70;;;19.60;99.90;;;18.58;100.00;101810.88;5015313;28;20029;-75
2021/07/14 01:31:25;;;;;;;16.67;10.52;;;19.60;99.90;;;18.62;100.00;101777.72;5013671;28;20385;-75
2021/07/14 01:33:57;;;;;;;15.75;10.25;;;19.70;99.90;;;18.63;100.00;101710.06;5021028;28;20022;-75
2021/07/14 01:36:26;;;;;;;19.15;10.88;;;19.70;99.90;;;18.77;100.00;101756.38;5021916;28;20061;-75
2021/07/14 01:38:56;;;;;;;19.27;10.38;;;19.80;99.90;;;18.81;100.00;101635.16;5019414;28;20037;-75
2021/07/14 01:41:26;;;;;;;16.63;10.27;;;19.80;99.90;;;18.71;100.00;101610.88;5021221;28;20048;-74
2021/07/14 01:43:58;;;;;;;15.15;10.30;;;19.80;99.90;;;18.72;100.00;101603.72;5020698;28;20037;-75
2021/07/14 01:46:30;;;;;;;16.13;9.70;;;19.80;99.90;;;18.69;100.00;101610.13;5021095;28;20377;-75
2021/07/14 01:49:01;;;;;;;15.27;9.98;;;19.80;99.90;;;18.75;100.00;101608.88;5002435;28;20029;-75
2021/07/14 01:51:29;;;;;;;19.55;11.00;;;19.80;99.90;;;18.89;100.00;101685.34;5037622;28;21363;-75
2021/07/14 01:53:58;;;;;;;19.77;11.15;;;19.90;99.90;;;18.98;100.00;101671.38;5020005;28;20436;-75
2021/07/14 01:56:26;;;;;;;14.38;10.25;;;19.90;99.90;;;18.99;100.00;101655.28;5021243;28;20788;-75
2021/07/14 01:58:53;;;;;;;19.50;10.63;;;20.00;99.90;;;19.06;100.00;101651.22;5020090;28;20022;-75
2021/07/14 02:01:20;;;;;;;13.73;10.65;;;20.10;99.90;;;19.17;100.00;101689.69;5012072;28;20032;-75
2021/07/14 02:06:34;;;;;;;14.30;9.90;;;20.30;99.90;;;19.42;100.00;101724.47;5022256;28;20036;-75
2021/07/14 02:09:00;;;;;;;17.08;9.70;;;20.30;99.90;;;19.33;100.00;101682.38;5019012;28;20028;-76
2021/07/14 02:11:28;;;;;;;13.85;9.40;;;20.40;99.90;;;19.43;100.00;101674.56;5037329;28;20033;-75
2021/07/14 02:13:55;;;;;;;12.25;9.48;;;20.40;99.90;;;19.41;100.00;101645.28;5020499;28;20116;-76
2021/07/14 02:16:24;;;;;;;16.25;9.52;;;20.40;99.90;;;19.47;100.00;101663.56;5037481;28;20039;-75
2021/07/14 02:18:56;;;;;;;17.45;10.20;;;20.40;99.90;;;19.45;100.00;101630.75;5027141;28;20087;-76
2021/07/14 02:21:23;;;;;;;14.48;9.85;;;20.40;99.90;;;19.43;100.00;101639.84;5003137;28;20029;-75
2021/07/14 02:23:50;;;;;;;14.13;9.80;;;20.40;99.90;;;19.43;100.00;101688.75;5019979;28;20025;-75
2021/07/14 02:26:16;;;;;;;16.10;10.18;;;20.40;99.90;;;19.41;100.00;101749.44;5014082;28;20036;-75
2021/07/14 02:28:43;;;;;;;15.02;10.55;;;20.40;99.90;;;19.37;100.00;101718.59;5019673;28;20477;-76
2021/07/14 02:31:10;;;;;;;14.05;10.07;;;20.40;99.90;;;19.35;100.00;101698.25;5021943;28;20046;-75
2021/07/14 02:33:36;;;;;;;12.60;9.77;;;20.30;99.90;;;19.32;100.00;101677.13;5022940;28;20017;-75
2021/07/14 02:36:06;;;;;;;16.67;10.25;;;20.40;99.90;;;19.40;100.00;101645.41;5021058;28;20025;-76
2021/07/14 02:38:42;;;;;;;14.38;9.85;;;20.40;99.90;;;19.41;100.00;101645.28;5018801;28;20405;-75
2021/07/14 02:41:22;;;;;;;19.02;9.98;;;20.40;99.90;;;19.40;100.00;101650.75;5038157;28;20070;-75
2021/07/14 02:43:58;;;;;;;16.25;9.30;;;20.40;99.90;;;19.42;100.00;101639.00;5019415;28;20541;-75
2021/07/14 02:46:29;;;;;;;14.65;9.95;;;20.40;99.90;;;19.44;100.00;101880.13;5037021;28;20116;-75
2021/07/14 02:49:04;;;;;;;13.27;9.52;;;20.40;99.90;;;19.40;100.00;101726.38;5019318;28;20061;-75
2021/07/14 02:51:33;;;;;;;16.70;10.95;;;20.40;99.90;;;19.42;100.00;101691.56;5029900;28;20098;-75
2021/07/14 02:54:03;;;;;;;14.75;11.00;;;20.50;99.90;;;19.43;100.00;101736.84;5022028;28;20092;-75
2021/07/14 02:56:31;;;;;;;18.75;10.60;;;20.40;99.90;;;19.39;100.00;101735.31;5005636;28;20029;-75
2021/07/14 02:59:10;;;;;;;13.10;9.73;;;20.50;99.90;;;19.46;100.00;102180.03;5022633;28;20092;-75
2021/07/14 03:01:42;;;;;;;17.00;9.80;;;20.40;99.90;;;19.36;100.00;102050.69;5041238;28;20401;-75
2021/07/14 03:04:11;;;;;;;15.73;10.13;;;20.40;99.90;;;19.41;100.00;101730.75;5039598;28;20052;-75
2021/07/14 03:06:39;;;;;;;16.27;10.55;;;20.50;99.90;;;19.53;100.00;101680.13;5051039;28;20020;-75
2021/07/14 03:09:11;;;;;;;15.98;10.50;;;20.60;99.90;;;19.65;100.00;101676.59;5024662;28;20017;-75
2021/07/14 03:11:41;;;;;;;13.55;9.88;;;20.60;99.90;;;19.66;100.00;101630.22;5033351;28;20037;-76
2021/07/14 03:14:11;;;;;;;13.23;9.48;;;20.70;99.90;;;19.73;100.00;101626.19;5041102;28;20060;-75
2021/07/14 03:16:39;;;;;;;13.82;9.65;;;20.70;99.90;;;19.69;100.00;101611.28;5040902;28;20025;-75
2021/07/14 03:19:06;;;;;;;14.50;9.80;;;20.80;99.90;;;19.76;100.00;101614.41;5038276;28;20029;-75
2021/07/14 03:21:34;;;;;;;17.60;9.25;;;20.80;99.90;;;19.76;100.00;101628.66;5039794;28;20071;-75
2021/07/14 03:24:05;;;;;;;18.13;10.38;;;20.80;99.90;;;19.87;100.00;101604.69;5006780;28;20017;-75
2021/07/14 03:26:33;;;;;;;15.07;9.40;;;20.80;99.90;;;19.85;100.00;101597.75;5016791;28;20094;-75
2021/07/14 03:29:02;;;;;;;17.10;10.07;;;20.80;99.90;;;19.83;100.00;101584.47;5025002;28;20028;-75
2021/07/14 03:31:29;;;;;;;11.45;8.98;;;20.90;99.90;;;19.86;100.00;101570.88;5007784;28;20037;-75
2021/07/14 03:33:56;;;;;;;13.43;9.45;;;20.90;99.90;;;19.81;100.00;101540.97;5025953;28;20502;-75
2021/07/14 03:36:23;;;;;;;13.55;9.95;;;20.80;99.90;;;19.90;100.00;101544.81;5023289;28;20428;-75
2021/07/14 03:38:50;;;;;;;15.80;9.20;;;20.90;99.90;;;19.91;100.00;101551.00;5006821;28;20575;-75
2021/07/14 03:41:16;;;;;;;18.77;9.15;;;20.90;99.90;;;19.96;100.00;101530.16;5023611;28;20540;-75
2021/07/14 03:43:43;;;;;;;13.98;9.13;;;21.00;99.90;;;19.97;100.00;101539.84;5039389;28;20524;-76
2021/07/14 03:46:09;;;;;;;13.20;8.90;;;20.90;99.90;;;19.94;100.00;101535.59;5040899;28;20029;-76
2021/07/14 03:48:38;;;;;;;11.90;9.23;;;21.00;99.90;;;19.93;100.00;101557.91;5041003;28;20025;-76
2021/07/14 03:51:07;;;;;;;16.25;9.40;;;21.00;99.90;;;19.96;100.00;101541.69;5030347;28;20102;-75
2021/07/14 03:53:34;;;;;;;11.50;9.48;;;21.00;99.90;;;20.00;100.00;101556.53;5039893;28;21674;-75
2021/07/14 03:56:01;;;;;;;15.05;8.80;;;21.10;99.90;;;20.04;100.00;101550.00;5021041;28;20024;-74
2021/07/14 03:58:28;;;;;;;14.45;8.98;;;21.10;99.90;;;20.01;100.00;101533.31;5030815;28;20044;-75
2021/07/14 04:00:55;;;;;;;15.25;8.90;;;21.10;99.90;;;20.08;100.00;101554.13;5039343;28;20057;-75
2021/07/14 04:03:27;;;;;;;16.80;9.60;;;21.20;99.90;;;20.11;100.00;101561.09;5024195;28;20037;-75
2021/07/14 04:06:00;;;;;;;11.10;8.52;;;21.20;99.90;;;20.20;100.00;101554.22;5038965;28;20033;-75
2021/07/14 04:08:40;;;;;;;15.52;9.40;;;21.40;99.90;;;20.39;100.00;101569.72;5021777;28;20112;-75
2021/07/14 04:11:07;;;;;;;12.32;8.65;;;21.60;99.90;;;20.61;100.00;101590.41;5022278;28;20029;-75
2021/07/14 04:13:34;;;;;;;11.90;8.98;;;22.00;99.90;;;20.91;100.00;101614.00;5023098;28;20104;-75
2021/07/14 04:16:00;;;;;;;12.77;9.00;;;22.40;99.90;;;21.28;98.39;101636.09;5039590;28;20040;-75
2021/07/14 04:18:26;;;;;;;10.05;8.10;;;22.80;99.90;;;21.54;96.07;101643.13;5005421;28;20033;-75
2021/07/14 04:20:52;;;;;;;11.93;8.13;;;23.10;99.90;;;21.86;95.53;101654.81;5040000;28;20053;-76
2021/07/14 04:23:18;;;;;;;10.25;7.63;;;23.50;99.90;;;22.18;94.00;101666.59;5032693;28;20120;-75
2021/07/14 04:25:44;;;;;;;10.68;8.10;;;24.00;99.90;;;22.65;92.40;101694.09;5040309;28;20072;-76
2021/07/14 04:28:10;;;;;;;12.82;7.85;;;24.60;99.90;;;23.15;89.98;101705.16;5006211;28;20506;-75
2021/07/14 04:30:36;;;;;;;9.35;6.65;;;25.40;99.90;;;23.83;87.68;101745.97;5020355;28;20501;-76
2021/07/14 04:33:02;;;;;;;13.63;7.65;;;25.90;99.90;;;24.25;83.91;101745.00;5040264;28;20017;-75
2021/07/14 04:35:28;;;;;;;10.65;7.00;;;26.30;99.90;;;24.70;80.85;101740.06;5022077;28;20459;-76
2021/07/14 04:37:54;;;;;;;11.55;6.63;;;26.60;99.90;;;24.60;78.90;101703.34;5038992;28;20040;-75
2021/07/14 04:40:22;;;;;;;12.05;6.72;;;26.80;99.90;;;25.04;79.54;101726.19;5038227;28;20043;-75
2021/07/14 04:42:51;;;;;;;11.50;7.32;;;27.30;99.90;;;25.31;77.72;101719.25;5004670;28;20045;-76
2021/07/14 04:45:17;;;;;;;7.82;6.72;;;27.30;99.90;;;25.09;78.46;101680.81;5030286;28;20508;-76
2021/07/14 04:47:43;;;;;;;8.55;6.07;;;27.00;99.90;;;24.66;79.30;101625.53;5039473;28;20055;-76
2021/07/14 04:50:10;;;;;;;9.68;7.10;;;26.60;99.90;;;24.66;80.03;101619.31;5046998;28;20036;-75
2021/07/14 04:52:36;;;;;;;11.30;6.63;;;26.50;99.90;;;24.53;79.75;101668.03;5030521;28;20037;-76
2021/07/14 04:55:02;;;;;;;10.48;7.20;;;26.40;99.90;;;24.43;79.86;101614.19;5038178;28;20078;-76
2021/07/14 04:57:28;;;;;;;14.23;7.72;;;26.10;99.90;;;24.28;80.55;101570.69;5022833;28;20026;-76
2021/07/14 04:59:54;;;;;;;7.75;6.43;;;25.90;99.90;;;24.08;82.56;101571.63;5038925;28;20146;-76
2021/07/14 05:02:21;;;;;;;8.50;7.25;;;25.60;99.90;;;23.79;82.78;101524.03;5021505;28;20104;-75
2021/07/14 05:04:47;;;;;;;11.15;7.57;;;25.60;99.90;;;24.14;82.03;101625.72;5038169;28;20025;-76
2021/07/14 05:07:13;;;;;;;11.15;6.90;;;25.90;99.90;;;24.44;79.51;101621.25;5028760;28;20028;-76
2021/07/14 05:09:39;;;;;;;11.20;7.78;;;26.10;99.90;;;24.51;79.20;101565.03;5012635;28;20025;-76
2021/07/14 05:12:05;;;;;;;8.77;7.70;;;26.00;99.90;;;24.62;79.27;101564.91;5023631;28;20412;-75
2021/07/14 05:14:31;;;;;;;12.38;7.43;;;26.50;99.90;;;25.17;78.16;101608.19;5036190;28;20029;-76
2021/07/14 05:16:57;;;;;;;10.77;7.93;;;27.10;99.90;;;25.57;75.16;101617.00;5039096;28;22217;-75
2021/07/14 05:19:23;;;;;;;8.30;7.40;;;26.90;99.90;;;24.90;78.09;101527.28;5046073;28;20041;-75
2021/07/14 05:21:50;;;;;;;9.95;7.43;;;27.10;99.90;;;25.40;76.08;101569.28;5044378;28;20132;-76
2021/07/14 05:24:16;;;;;;;8.23;7.13;;;26.90;99.90;;;25.20;76.63;101650.19;5038454;28;20048;-76
2021/07/14 05:26:42;;;;;;;16.17;7.80;;;26.30;99.90;;;24.71;78.54;101590.13;5038974;28;20347;-75
2021/07/14 05:29:09;;;;;;;12.27;8.18;;;25.80;99.90;;;24.23;80.94;101553.25;5029104;28;20036;-75
2021/07/14 05:31:35;;;;;;;9.48;7.97;;;25.40;99.90;;;23.80;82.41;101488.09;5026380;28;20137;-76
2021/07/14 05:34:01;;;;;;;11.38;8.60;;;25.00;99.90;;;23.51;83.83;101448.50;5040482;28;20021;-76
2021/07/14 05:36:27;;;;;;;11.60;8.43;;;24.80;99.90;;;23.35;84.84;101432.09;5029043;28;20072;-75
2021/07/14 05:38:53;;;;;;;13.75;8.68;;;24.60;99.90;;;23.21;85.92;101414.50;5049949;28;20037;-75
2021/07/14 05:41:19;;;;;;;13.63;8.68;;;24.80;99.90;;;23.79;84.65;101470.25;5042895;28;20076;-75
2021/07/14 05:43:45;;;;;;;11.27;8.95;;;25.30;99.90;;;24.19;82.43;101480.03;5020763;28;20025;-75
2021/07/14 05:46:11;;;;;;;9.40;8.00;;;25.70;99.90;;;24.71;80.45;101514.72;5021736;28;20051;-76
2021/07/14 05:48:37;;;;;;;10.90;8.15;;;26.20;99.90;;;25.09;80.57;101538.00;5038439;28;20018;-76
2021/07/14 05:51:03;;;;;;;11.75;8.20;;;26.50;99.90;;;25.11;79.24;101511.75;5023725;28;20418;-76
2021/07/14 05:53:29;;;;;;;15.52;8.80;;;26.50;99.90;;;25.23;78.90;101525.09;5037231;28;20385;-75
2021/07/14 05:55:55;;;;;;;13.63;8.38;;;27.00;99.90;;;25.68;74.86;101537.78;5038131;28;20078;-75
2021/07/14 05:58:21;;;;;;;10.55;7.88;;;26.90;99.90;;;25.50;76.69;101514.31;5036328;28;20093;-75
2021/07/14 06:00:47;;;;;;;12.68;8.63;;;26.80;99.90;;;25.62;77.42;101504.19;5039635;28;20033;-75
2021/07/14 06:03:12;;;;;;;10.23;8.55;;;27.10;99.90;;;25.83;74.49;101490.44;5035445;28;20045;-75
2021/07/14 06:05:39;;;;;;;11.05;8.07;;;27.10;99.90;;;26.13;75.32;101532.41;5038418;28;20041;-75
2021/07/14 06:08:06;;;;;;;10.70;8.05;;;27.20;99.90;;;26.38;73.69;101519.13;5018286;28;20437;-75
2021/07/14 06:10:32;;;;;;;11.18;9.50;;;28.00;99.90;;;27.11;71.56;101564.78;5022499;28;20499;-76
2021/07/14 06:12:59;;;;;;;10.40;8.20;;;28.70;99.90;;;27.79;67.79;105967.88;5037566;28;20085;-75
2021/07/14 06:15:29;;;;;;;12.85;7.72;;;28.80;99.90;;;27.01;70.58;102373.00;5020209;28;20477;-76
2021/07/14 06:17:56;;;;;;;11.63;8.50;;;28.10;99.90;;;26.54;70.38;102107.16;5004775;28;20171;-75
2021/07/14 06:20:24;;;;;;;10.15;8.38;;;27.80;99.90;;;26.65;71.82;102063.81;5043072;28;20456;-75
2021/07/14 06:22:50;;;;;;;11.32;8.68;;;27.90;99.90;;;26.79;71.62;101730.19;5038538;28;20450;-76
2021/07/14 06:25:18;;;;;;;10.18;8.18;;;28.30;99.90;;;27.37;68.86;101723.47;5043714;28;20034;-75
2021/07/14 06:27:46;;;;;;;10.63;8.20;;;28.60;99.90;;;27.44;69.03;101615.50;5030935;28;20041;-76
2021/07/14 06:30:16;;;;;;;11.55;7.93;;;29.00;99.90;;;27.92;66.43;101620.31;5035308;28;20078;-76
2021/07/14 06:32:43;;;;;;;14.38;8.52;;;29.10;99.90;;;27.91;65.68;101559.09;5036502;28;20416;-75
2021/07/14 06:35:12;;;;;;;11.55;8.23;;;28.90;99.90;;;27.93;66.58;101570.59;5006053;28;20021;-76
2021/07/14 06:37:40;;;;;;;11.85;8.50;;;28.70;99.90;;;27.25;68.04;101459.78;5012086;28;20030;-75
2021/07/14 06:40:09;;;;;;;8.75;7.45;;;28.00;99.90;;;26.54;69.52;101395.03;5019683;28;20116;-75
2021/07/14 06:42:39;;;;;;;9.82;8.50;;;27.60;99.90;;;26.11;71.40;101982.44;5037899;28;20064;-75
2021/07/14 06:45:07;;;;;;;10.90;7.40;;;27.50;99.90;;;26.60;70.94;101534.00;5035250;28;20116;-76
2021/07/14 06:47:34;;;;;;;12.20;7.75;;;27.60;99.90;;;26.82;69.92;101526.41;5020945;28;20029;-75
2021/07/14 06:50:03;;;;;;;10.57;8.70;;;27.80;99.90;;;27.03;72.05;101480.94;5019296;28;20170;-76
2021/07/14 06:52:29;;;;;;;10.82;8.55;;;28.00;99.90;;;27.33;68.57;101436.31;5022137;28;20167;-75
2021/07/14 06:54:55;;;;;;;12.20;8.68;;;28.20;99.90;;;27.40;69.42;101423.81;5019823;28;20523;-76
2021/07/14 06:57:21;;;;;;;12.13;8.20;;;28.30;99.90;;;27.60;68.09;101410.00;5037157;28;20047;-76
2021/07/14 06:59:47;;;;;;;11.82;8.80;;;28.30;99.90;;;27.67;65.60;101443.50;5028406;28;20260;-75
2021/07/14 07:02:13;;;;;;;11.13;8.35;;;28.00;99.90;;;26.85;68.73;101399.13;5037129;28;20030;-75
2021/07/14 07:04:39;;;;;;;11.35;8.20;;;28.40;99.90;;;28.24;65.21;101499.56;5036970;28;20496;-75
2021/07/14 07:07:05;;;;;;;14.00;8.65;;;29.00;99.90;;;28.69;60.93;101503.66;5041124;28;20477;-75
2021/07/14 07:09:32;;;;;;;10.48;8.40;;;30.10;99.90;;;30.18;57.21;101559.88;5049801;28;20075;-75
2021/07/14 07:11:58;;;;;;;13.25;8.10;;;31.10;99.90;;;30.59;55.58;101523.41;5037992;28;20026;-73
2021/07/14 07:14:24;;;;;;;11.18;8.65;;;31.20;99.90;;;30.23;57.12;101454.22;5035707;28;20076;-73
2021/07/14 07:16:50;;;;;;;9.10;8.13;;;31.10;99.90;;;29.89;58.24;101443.81;5036360;28;20045;-73
2021/07/14 07:19:16;;;;;;;10.45;8.75;;;31.30;99.90;;;30.16;59.81;101449.72;5019113;28;20037;-73
2021/07/14 07:21:43;;;;;;;12.35;8.93;;;31.40;99.90;;;30.90;55.99;101500.69;5037072;28;20022;-73
2021/07/14 07:24:09;;;;;;;11.60;9.80;;;31.40;99.90;;;31.05;55.24;101487.94;5020673;28;20075;-73
2021/07/14 07:26:35;;;;;;;14.07;10.70;;;31.30;99.90;;;30.58;54.08;101399.41;5020213;28;20036;-73
2021/07/14 07:29:07;;;;;;;16.05;10.40;;;31.30;99.90;;;31.29;53.04;101459.56;5019202;28;20451;-72
2021/07/14 07:31:33;;;;;;;12.63;9.63;;;32.00;99.90;;;31.10;57.08;101953.31;5020171;28;20116;-73
2021/07/14 07:34:00;;;;;;;13.02;9.18;;;32.00;99.90;;;31.43;53.43;101690.06;5016390;28;20080;-72
2021/07/14 07:36:28;;;;;;;11.52;9.07;;;31.80;99.90;;;31.22;53.30;101546.56;5037642;28;20018;-73
2021/07/14 07:38:54;;;;;;;10.15;8.63;;;31.50;99.90;;;30.85;53.90;101450.41;5018641;28;20060;-73
2021/07/14 07:41:23;;;;;;;10.68;8.95;;;31.40;99.90;;;30.95;54.22;101386.75;5019284;28;20037;-73
2021/07/14 07:43:50;;;;;;;9.68;8.45;;;31.40;99.90;;;30.89;53.07;101361.19;5020831;28;20025;-72
2021/07/14 07:46:16;;;;;;;12.27;8.85;;;31.20;99.90;;;30.97;55.11;101380.13;5041084;28;20024;-73
2021/07/14 07:48:43;;;;;;;10.60;8.35;;;31.70;99.90;;;31.46;53.95;101525.53;5023778;28;20032;-73
2021/07/14 07:51:09;;;;;;;10.38;8.05;;;32.20;99.90;;;31.28;53.83;101442.41;5020412;28;20534;-73
2021/07/14 07:53:37;;;;;;;11.18;8.60;;;31.90;99.90;;;31.15;54.88;101417.78;5024484;28;20034;-72
2021/07/14 07:56:05;;;;;;;11.35;7.75;;;31.70;99.90;;;31.09;55.01;101368.75;5021976;28;20461;-73
2021/07/14 07:58:31;;;;;;;10.95;9.20;;;30.90;99.90;;;30.20;57.06;101288.94;5024775;28;20049;-72
2021/07/14 08:00:58;;;;;;;9.75;8.02;;;30.30;99.90;;;29.15;59.89;101259.84;5038423;28;20138;-73
2021/07/14 08:03:24;;;;;;;10.50;8.15;;;30.10;99.90;;;29.17;60.65;101255.09;5023274;28;20029;-72
2021/07/14 08:05:50;;;;;;;15.70;8.32;;;30.30;99.90;;;29.53;60.45;101261.78;5038325;28;20091;-73
2021/07/14 08:08:18;;;;;;;10.57;8.93;;;30.50;99.90;;;29.62;58.52;101299.50;5021126;28;20071;-73
2021/07/14 08:10:44;;;;;;;10.07;8.93;;;30.40;99.90;;;29.58;59.43;101279.19;5039671;28;20024;-73
2021/07/14 08:13:10;;;;;;;13.88;9.00;;;30.20;99.90;;;28.98;61.55;101225.72;5001159;28;20025;-73
2021/07/14 08:15:36;;;;;;;11.63;9.25;;;29.80;99.90;;;28.86;62.44;101582.22;5038612;28;20515;-72
2021/07/14 08:18:04;;;;;;;11.48;9.13;;;29.60;99.90;;;28.48;66.06;101262.22;5040239;28;20047;-73
2021/07/14 08:20:30;;;;;;;15.35;9.50;;;29.20;99.90;;;28.26;64.25;101199.69;5036876;28;20112;-72
2021/07/14 08:22:56;;;;;;;11.38;9.00;;;29.00;99.90;;;28.34;64.53;101186.13;5023249;28;20035;-72
2021/07/14 08:25:23;;;;;;;16.98;9.55;;;29.40;99.90;;;29.23;62.11;101257.09;5037895;28;20037;-73
2021/07/14 08:27:50;;;;;;;12.32;9.07;;;30.20;99.90;;;29.52;61.16;101243.81;5022295;28;20037;-73
2021/07/14 08:30:17;;;;;;;10.13;8.88;;;30.30;99.90;;;29.52;59.76;101228.34;5038852;28;20038;-73
2021/07/14 08:32:43;;;;;;;22.45;10.43;;;30.00;99.90;;;29.17;62.98;101181.88;5038746;28;20087;-73
2021/07/14 08:35:11;;;;;;;14.38;9.30;;;30.10;99.90;;;29.45;61.72;101211.13;5023069;28;20481;-73
2021/07/14 08:37:37;;;;;;;12.55;9.05;;;29.80;99.90;;;28.49;65.14;101099.59;5039472;28;20468;-72
2021/07/14 08:40:07;;;;;;;14.77;9.73;;;29.70;99.90;;;28.76;64.66;101136.09;5022594;28;21630;-72
2021/07/14 08:42:36;;;;;;;16.48;9.52;;;29.70;99.90;;;28.87;63.71;101139.44;5023646;28;20033;-73
2021/07/14 08:45:08;;;;;;;17.70;9.73;;;30.00;99.90;;;28.99;63.67;101097.31;5037660;28;20057;-72
2021/07/14 08:47:35;;;;;;;13.70;9.00;;;30.20;99.90;;;29.35;63.73;101140.91;5046096;28;20029;-72
2021/07/14 08:50:02;;;;;;;18.00;9.98;;;30.10;99.90;;;28.73;63.97;101057.06;5037779;28;20033;-72
2021/07/14 08:52:28;;;;;;;13.70;8.88;;;30.10;99.90;;;29.42;62.10;101135.56;5026238;28;20446;-72
2021/07/14 08:54:54;;;;;;;12.43;9.27;;;30.10;99.90;;;29.26;63.56;101108.59;5038861;28;20039;-72
2021/07/14 08:57:21;;;;;;;15.18;10.30;;;30.20;99.90;;;29.32;63.99;101103.28;5037886;28;20076;-72
2021/07/14 08:59:47;;;;;;;12.73;9.75;;;30.10;99.90;;;29.44;63.75;101111.81;5021402;28;20033;-72
2021/07/14 09:02:14;;;;;;;23.42;11.15;;;29.80;99.90;;;29.03;62.67;101069.66;4997069;28;20039;-72
2021/07/14 09:05:03;;;;;;;19.75;9.77;;;29.40;99.90;;;28.48;64.97;101030.19;4986812;28;20511;-72
2021/07/14 09:07:52;;;;;;;14.02;10.02;;;29.20;99.90;;;28.34;66.01;101017.41;4975281;28;20765;-72
2021/07/14 09:11:06;;;;;;;17.23;10.80;;;29.00;99.90;;;28.32;66.53;101006.75;4981142;28;20069;-73
2021/07/14 09:14:14;;;;;;;11.32;9.80;;;29.20;99.90;;;28.74;64.56;101059.56;4977043;28;20033;-72
2021/07/14 09:17:35;;;;;;;17.83;9.82;;;29.30;99.90;;;28.77;65.20;101051.09;4980326;28;20049;-72
2021/07/14 09:20:53;;;;;;;19.60;9.68;;;29.50;99.90;;;29.02;65.55;101048.16;4989426;28;20067;-72
2021/07/14 09:23:58;;;;;;;13.32;10.00;;;29.60;99.90;;;28.54;66.96;100977.16;4995220;28;20125;-73
2021/07/14 09:27:16;;;;;;;12.48;10.02;;;29.30;99.90;;;28.51;67.63;100988.34;4982833;28;20045;-72
2021/07/14 09:30:23;;;;;;;16.13;10.40;;;29.00;99.90;;;28.45;67.64;100986.34;4994879;28;20043;-72
2021/07/14 09:33:40;;;;;;;13.47;11.03;;;29.00;99.90;;;28.01;66.10;100958.06;4979285;28;20041;-72
2021/07/14 09:37:21;;;;;;;14.10;10.95;;;28.80;99.90;;;27.94;65.35;100959.81;4977827;28;20469;-73
2021/07/14 09:40:35;;;;;;;14.55;10.73;;;28.60;99.90;;;27.70;67.35;100966.22;4990431;28;20045;-72
2021/07/14 09:43:56;;;;;;;15.02;11.45;;;28.70;99.90;;;28.23;64.46;101008.69;4991791;28;20059;-75
2021/07/14 09:47:29;;;;;;;14.13;11.13;;;29.00;99.90;;;28.68;64.86;101046.75;4988378;28;20033;-75
2021/07/14 09:51:11;;;;;;;14.98;11.77;;;29.60;99.90;;;28.87;62.92;101048.13;4977598;28;20044;-75
2021/07/14 09:54:06;;;;;;;14.70;10.90;;;29.30;99.90;;;28.57;64.39;101028.25;4995577;28;20040;-75
2021/07/14 09:57:25;;;;;;;16.55;11.27;;;28.80;99.90;;;27.15;70.26;100919.31;4971192;28;20135;-75
2021/07/14 10:00:49;;;;;;;16.77;12.68;;;27.00;99.90;;;25.80;76.20;101007.91;4990074;28;20110;-75
2021/07/14 10:04:32;;;;;;;17.42;12.60;;;26.30;99.90;;;25.36;78.80;100987.38;4997157;28;20079;-75
2021/07/14 10:07:56;;;;;;;15.02;11.55;;;25.80;99.90;;;24.82;81.29;100985.88;4976207;28;20044;-74
2021/07/14 10:10:43;;;;;;;15.27;11.48;;;25.30;99.90;;;24.38;83.62;100958.91;4985784;28;20036;-74
2021/07/14 10:14:03;;;;;;;16.42;12.35;;;24.80;99.90;;;23.87;86.17;100986.34;4974592;28;20037;-74
2021/07/14 10:17:07;;;;;;;17.77;12.00;;;24.50;99.90;;;23.60;88.38;100965.69;4990650;28;20033;-74
2021/07/14 10:20:33;;;;;;;16.52;11.90;;;24.30;99.90;;;23.44;89.62;100966.34;4985496;28;20049;-74
2021/07/14 10:23:44;;;;;;;15.43;11.85;;;24.00;99.90;;;23.11;91.18;100968.63;4974523;28;20040;-74
2021/07/14 10:26:58;;;;;;;17.33;11.98;;;23.70;99.90;;;22.69;94.45;100944.81;4976128;28;20508;-74
2021/07/14 10:30:27;;;;;;;25.50;12.18;;;23.30;99.90;;;22.34;99.42;100933.88;4976667;28;20057;-75
2021/07/14 10:33:34;;;;;;;23.63;13.43;;;23.00;99.90;;;22.15;100.00;100926.66;4989383;28;20029;-76
2021/07/14 10:37:03;;;;;;;42.05;15.77;;;22.80;99.90;;;22.01;100.00;100938.63;4981999;28;20175;-78
2021/07/14 10:51:42;;;;;;;34.72;19.95;;;22.20;99.90;;;21.16;100.00;100961.41;4996630;28;20036;-79
2021/07/14 10:54:14;;;;;;;34.58;20.55;;;22.10;99.90;;;21.15;100.00;100962.41;4985077;28;20443;-80
2021/07/14 10:56:46;;;;;;;36.45;19.35;;;22.00;99.90;;;21.20;100.00;100981.59;4985084;28;20028;-80